Quentin, Mississippi
Current Conditions -  °F | °C
As of 6:15 PM on Wednesday 28 Jan 2015 (Local Time) from K1R7 Reporting Station
Clear Clear  
Wind Chill: 14°   Ceiling: Unl
Heat Index: 14°   Visibility: NA
Dew Point:   Wind: 0mph
Humidity: 51%   Direction: NA
Pressure: 30.21"   Gusts: NA
Location:  31.5295°N, 90.7634°W
Report Text: K1R7 290015Z AUTO 00000KT CLR 14/04 A3021 RMK AO2
Loading
Personal Weather Stations






























Interactive Weather Map New forecast layout! Learn more

10-Day Weather Forecast

Advertisements
Track Severe Weather on mobile